Terminal Aerodrome Forecast
Issued by NWS

Home | Current Version | Previous Version | Graphics & Text | Print | Product List | Glossary On
Versions: 1 2 3 4 5 6 7 8 9 10 11 12 13 14 15 16 17 18 19 20 21 22 23 24 25 26 27
156
FTUS43 KABR 230525
TAFATY
TAF
KATY 230525Z 2306/2406 34016KT 5SM BR OVC004
     FM230800 VRB06KT 3SM BR OVC003
     FM231900 VRB06KT P6SM OVC010
     FM232200 27007KT P6SM BKN045
     FM240200 VRB06KT P6SM SCT045=

USA.gov is the U.S. government's official web portal to all federal, state and local government web resources and services.